Time;durP1;ratioP1;P1;durP2;ratioP2;P2;SDS_P1;SDS_P2;PMS_P1;PMS_P2;Temp;Humidity;BMP_temperature;BMP_pressure;BME280_temperature;BME280_humidity;BME280_pressure;Samples;Min_cycle;Max_cycle;Signal;HPM_P1;HPM_P2
2022/08/13 00:00:09;;;;;;;;;;;26.00;59.10;;;;;;5009989;28;19925;-74
2022/08/13 00:02:39;;;;;;;;;;;26.10;59.10;;;;;;5008233;28;19920;-75
2022/08/13 00:05:05;;;;;;;;;;;25.70;59.50;;;;;;5014728;28;20567;-76
2022/08/13 00:07:31;;;;;;;;;;;25.40;60.60;;;;;;5014416;28;20000;-76
2022/08/13 00:09:58;;;;;;;;;;;25.40;60.90;;;;;;5014531;28;19937;-75
2022/08/13 00:15:14;;;;;;;;;;;24.90;61.00;;;;;;5009516;28;19909;-75
2022/08/13 00:17:41;;;;;;;;;;;24.90;62.00;;;;;;5002389;28;19912;-75
2022/08/13 00:20:07;;;;;;;;;;;24.60;62.30;;;;;;5014471;28;20020;-74
2022/08/13 00:22:34;;;;;;;;;;;24.80;62.90;;;;;;5014484;28;19959;-74
2022/08/13 00:25:01;;;;;;;;;;;24.80;62.90;;;;;;5014647;28;20407;-74
2022/08/13 00:27:27;;;;;;;;;;;24.60;62.90;;;;;;5014107;28;19909;-74
2022/08/13 00:29:56;;;;;;;;;;;24.30;63.50;;;;;;5003432;28;19913;-74
2022/08/13 00:32:26;;;;;;;;;;;24.30;64.00;;;;;;4994919;28;19929;-74
2022/08/13 00:34:51;;;;;;;;;;;24.40;64.00;;;;;;5000157;28;20380;-74
2022/08/13 00:37:17;;;;;;;;;;;24.10;64.00;;;;;;5012926;28;19996;-74
2022/08/13 00:39:43;;;;;;;;;;;24.50;64.10;;;;;;5001992;28;19910;-74
2022/08/13 00:42:08;;;;;;;;;;;24.40;64.40;;;;;;5014297;28;19932;-74
2022/08/13 00:44:34;;;;;;;;;;;24.10;64.30;;;;;;5014333;28;19932;-74
2022/08/13 00:49:47;;;;;;;;;;;23.80;65.10;;;;;;5013245;28;20023;-74
2022/08/13 00:52:13;;;;;;;;;;;23.40;66.20;;;;;;5009605;28;19906;-74
2022/08/13 00:54:40;;;;;;;;;;;23.00;66.20;;;;;;5007539;28;19920;-76
2022/08/13 00:57:07;;;;;;;;;;;23.30;66.80;;;;;;5004443;28;20381;-75
2022/08/13 00:59:34;;;;;;;;;;;23.20;66.30;;;;;;4971898;28;1171246;-74
2022/08/13 01:02:00;;;;;;;;;;;23.30;66.60;;;;;;5014943;28;20428;-73
2022/08/13 01:04:27;;;;;;;;;;;23.10;66.70;;;;;;5000946;28;19913;-74
2022/08/13 01:06:52;;;;;;;;;;;22.80;67.10;;;;;;5001148;28;19909;-74
2022/08/13 01:09:18;;;;;;;;;;;22.60;68.00;;;;;;5014861;28;20378;-74
2022/08/13 01:11:45;;;;;;;;;;;23.00;68.50;;;;;;5014611;28;19912;-77
2022/08/13 01:14:11;;;;;;;;;;;23.30;68.00;;;;;;5013338;28;19909;-74
2022/08/13 01:16:37;;;;;;;;;;;23.70;66.70;;;;;;5012124;28;20004;-73
2022/08/13 01:19:05;;;;;;;;;;;23.30;66.70;;;;;;5009798;28;19910;-76
2022/08/13 01:21:31;;;;;;;;;;;23.10;67.40;;;;;;5004481;28;19916;-74
2022/08/13 01:23:57;;;;;;;;;;;23.00;68.10;;;;;;5014553;28;19910;-74
2022/08/13 01:26:23;;;;;;;;;;;23.10;68.30;;;;;;5014524;28;19913;-74
2022/08/13 01:28:50;;;;;;;;;;;22.80;68.70;;;;;;5013972;28;19909;-75
2022/08/13 01:31:18;;;;;;;;;;;23.30;68.40;;;;;;5013354;28;19976;-73
2022/08/13 01:33:45;;;;;;;;;;;23.40;67.80;;;;;;5013980;28;19932;-73
2022/08/13 01:36:11;;;;;;;;;;;23.50;68.20;;;;;;5014629;28;19916;-74
2022/08/13 01:38:38;;;;;;;;;;;23.10;68.40;;;;;;5000263;28;19906;-74
2022/08/13 01:41:08;;;;;;;;;;;23.20;68.60;;;;;;5009850;28;19956;-74
2022/08/13 01:43:38;;;;;;;;;;;23.40;68.60;;;;;;5007157;28;20250;-74
2022/08/13 01:46:05;;;;;;;;;;;23.50;68.40;;;;;;5013065;28;19916;-74
2022/08/13 01:51:21;;;;;;;;;;;23.50;67.90;;;;;;5014091;28;19921;-74
2022/08/13 01:53:49;;;;;;;;;;;23.40;67.50;;;;;;5013841;28;19984;-74
2022/08/13 01:56:20;;;;;;;;;;;23.40;68.00;;;;;;5013849;28;19905;-74
2022/08/13 01:58:47;;;;;;;;;;;23.30;68.60;;;;;;5009222;28;20007;-73
2022/08/13 02:01:13;;;;;;;;;;;22.90;68.90;;;;;;5012192;28;19924;-74
2022/08/13 02:03:42;;;;;;;;;;;22.80;69.50;;;;;;5013563;28;19913;-74
2022/08/13 02:06:08;;;;;;;;;;;22.90;70.00;;;;;;5011954;28;19925;-74
2022/08/13 02:08:36;;;;;;;;;;;22.80;71.10;;;;;;5013646;28;19914;-74
2022/08/13 02:11:03;;;;;;;;;;;22.70;71.30;;;;;;5013664;28;20385;-74
2022/08/13 02:13:29;;;;;;;;;;;22.70;71.40;;;;;;5013573;28;20320;-74
2022/08/13 02:15:55;;;;;;;;;;;22.70;71.50;;;;;;5013942;28;19928;-74
2022/08/13 02:18:22;;;;;;;;;;;22.50;72.00;;;;;;5013206;28;20421;-74
2022/08/13 02:20:53;;;;;;;;;;;22.80;72.10;;;;;;5013526;28;19906;-74
2022/08/13 02:23:20;;;;;;;;;;;22.80;71.60;;;;;;5013326;28;20008;-75
2022/08/13 02:25:47;;;;;;;;;;;22.90;71.40;;;;;;5013237;28;19963;-75
2022/08/13 02:28:14;;;;;;;;;;;22.80;71.00;;;;;;5012698;28;20051;-73
2022/08/13 02:30:41;;;;;;;;;;;22.90;70.90;;;;;;5008578;28;20038;-74
2022/08/13 02:33:07;;;;;;;;;;;22.70;71.10;;;;;;5008563;28;20388;-75
2022/08/13 02:35:35;;;;;;;;;;;22.50;71.30;;;;;;5013318;28;19916;-74
2022/08/13 02:38:01;;;;;;;;;;;22.30;72.50;;;;;;5004733;28;19910;-74
2022/08/13 02:43:12;;;;;;;;;;;22.40;73.20;;;;;;5013578;28;19916;-73
2022/08/13 02:45:38;;;;;;;;;;;22.50;72.80;;;;;;5012874;28;19920;-73
2022/08/13 02:48:05;;;;;;;;;;;22.60;72.10;;;;;;5013328;28;19909;-73
2022/08/13 02:50:32;;;;;;;;;;;22.70;71.30;;;;;;5012811;28;19917;-73
2022/08/13 02:52:57;;;;;;;;;;;22.60;71.30;;;;;;5008607;28;20001;-73
2022/08/13 02:55:24;;;;;;;;;;;22.40;71.70;;;;;;5001230;28;20004;-73
2022/08/13 02:57:50;;;;;;;;;;;22.30;72.60;;;;;;5011837;28;20028;-73
2022/08/13 03:00:17;;;;;;;;;;;22.00;73.50;;;;;;5012597;28;19921;-73
2022/08/13 03:02:44;;;;;;;;;;;21.90;74.60;;;;;;5012972;28;19921;-73
2022/08/13 03:05:12;;;;;;;;;;;21.80;75.40;;;;;;5013078;28;19909;-73
2022/08/13 03:07:40;;;;;;;;;;;21.70;76.60;;;;;;5009792;28;19906;-73
2022/08/13 03:10:09;;;;;;;;;;;21.80;76.20;;;;;;5013010;28;19984;-73
2022/08/13 03:12:34;;;;;;;;;;;22.10;74.90;;;;;;5012987;28;20004;-73
2022/08/13 03:15:00;;;;;;;;;;;22.00;75.10;;;;;;5008251;28;19945;-73
2022/08/13 03:17:26;;;;;;;;;;;22.00;75.30;;;;;;5004984;28;19944;-74
2022/08/13 03:19:51;;;;;;;;;;;21.90;76.40;;;;;;5013034;28;20392;-73
2022/08/13 03:22:17;;;;;;;;;;;21.80;77.00;;;;;;5013150;28;19909;-73
2022/08/13 03:24:43;;;;;;;;;;;22.10;76.50;;;;;;5009795;28;20321;-73
2022/08/13 03:27:09;;;;;;;;;;;22.20;75.80;;;;;;5013116;28;19905;-73
2022/08/13 03:29:36;;;;;;;;;;;22.40;75.30;;;;;;5012220;28;19924;-73
2022/08/13 03:32:02;;;;;;;;;;;22.10;75.90;;;;;;5008546;28;19921;-74
2022/08/13 03:34:28;;;;;;;;;;;21.70;77.70;;;;;;5005144;28;19910;-73
2022/08/13 03:36:54;;;;;;;;;;;21.40;79.30;;;;;;5012499;28;20286;-73
2022/08/13 03:39:19;;;;;;;;;;;21.50;80.10;;;;;;4999274;28;19913;-73
2022/08/13 03:41:45;;;;;;;;;;;21.60;80.10;;;;;;5011562;28;19909;-73
2022/08/13 03:44:10;;;;;;;;;;;21.80;79.50;;;;;;5015002;28;19932;-73
2022/08/13 03:46:36;;;;;;;;;;;21.60;80.00;;;;;;5014895;28;19914;-73
2022/08/13 03:49:02;;;;;;;;;;;21.60;80.90;;;;;;5016321;28;19996;-73
2022/08/13 03:51:28;;;;;;;;;;;21.30;82.50;;;;;;5016120;28;20263;-73
2022/08/13 03:53:54;;;;;;;;;;;21.20;83.40;;;;;;5016194;28;19910;-73
2022/08/13 03:56:22;;;;;;;;;;;21.60;82.70;;;;;;5016287;28;19910;-72
2022/08/13 03:58:49;;;;;;;;;;;21.50;83.00;;;;;;5015737;28;19913;-73
2022/08/13 04:01:17;;;;;;;;;;;21.10;85.20;;;;;;5011347;28;19922;-73
2022/08/13 04:03:43;;;;;;;;;;;21.20;85.70;;;;;;5007215;28;19913;-73
2022/08/13 04:06:19;;;;;;;;;;;21.20;85.40;;;;;;5015877;28;19912;-73
2022/08/13 04:08:46;;;;;;;;;;;21.50;86.30;;;;;;5015205;28;19917;-73
2022/08/13 04:11:13;;;;;;;;;;;21.40;85.70;;;;;;5015409;28;19988;-73
2022/08/13 04:13:39;;;;;;;;;;;21.30;86.90;;;;;;5015731;28;19963;-75
2022/08/13 04:16:06;;;;;;;;;;;21.40;87.10;;;;;;5011769;28;20358;-73
2022/08/13 04:18:35;;;;;;;;;;;21.40;86.30;;;;;;5011284;28;19906;-73
2022/08/13 04:21:03;;;;;;;;;;;21.20;87.70;;;;;;5009249;28;19910;-73
2022/08/13 04:23:28;;;;;;;;;;;21.20;88.00;;;;;;5011112;28;20323;-73
2022/08/13 04:25:55;;;;;;;;;;;21.10;89.00;;;;;;5007051;28;19924;-74
2022/08/13 04:28:21;;;;;;;;;;;21.10;90.00;;;;;;5015036;28;19910;-75
2022/08/13 04:30:47;;;;;;;;;;;21.10;90.20;;;;;;5013992;28;20031;-74
2022/08/13 04:33:14;;;;;;;;;;;21.00;90.00;;;;;;5012652;28;20048;-73
2022/08/13 04:35:41;;;;;;;;;;;21.00;90.20;;;;;;5015464;28;19906;-73
2022/08/13 04:38:07;;;;;;;;;;;21.00;90.00;;;;;;5004213;28;19913;-73
2022/08/13 04:40:33;;;;;;;;;;;21.00;90.40;;;;;;5011387;28;20285;-74
2022/08/13 04:42:59;;;;;;;;;;;21.00;90.20;;;;;;5010562;28;19910;-74
2022/08/13 04:45:25;;;;;;;;;;;21.00;91.00;;;;;;5009508;28;19912;-74
2022/08/13 04:47:52;;;;;;;;;;;20.90;91.30;;;;;;5015089;28;20404;-74
2022/08/13 04:50:18;;;;;;;;;;;20.80;92.00;;;;;;5015033;28;19917;-74
2022/08/13 04:52:44;;;;;;;;;;;21.00;91.60;;;;;;4994065;28;19993;-75
2022/08/13 04:55:13;;;;;;;;;;;20.70;92.30;;;;;;5003113;28;19995;-74
2022/08/13 04:57:41;;;;;;;;;;;20.40;92.50;;;;;;4996378;28;19988;-74
2022/08/13 05:00:07;;;;;;;;;;;20.40;93.30;;;;;;5014674;28;19917;-73
2022/08/13 05:02:36;;;;;;;;;;;20.70;93.10;;;;;;5014820;28;19914;-74
2022/08/13 05:05:02;;;;;;;;;;;20.90;93.00;;;;;;5013544;28;19916;-75
2022/08/13 05:07:28;;;;;;;;;;;21.00;92.70;;;;;;5014520;28;19910;-75
2022/08/13 05:09:54;;;;;;;;;;;21.20;92.30;;;;;;5009974;28;19917;-74
2022/08/13 05:12:20;;;;;;;;;;;21.30;92.50;;;;;;5002001;28;19910;-74
2022/08/13 05:14:46;;;;;;;;;;;21.50;92.40;;;;;;5012513;28;19913;-73
2022/08/13 05:17:11;;;;;;;;;;;21.20;92.80;;;;;;5014384;28;19916;-74
2022/08/13 05:19:37;;;;;;;;;;;21.10;94.00;;;;;;5014339;28;19909;-74
2022/08/13 05:22:03;;;;;;;;;;;21.10;94.20;;;;;;5014180;28;20051;-74
2022/08/13 05:24:29;;;;;;;;;;;21.30;93.80;;;;;;5014284;28;19916;-74
2022/08/13 05:26:55;;;;;;;;;;;21.30;93.00;;;;;;5014245;28;19905;-73
2022/08/13 05:29:20;;;;;;;;;;;21.40;93.00;;;;;;5014139;28;19918;-73
2022/08/13 05:31:46;;;;;;;;;;;21.60;93.10;;;;;;5009697;28;20285;-74
2022/08/13 05:34:12;;;;;;;;;;;21.80;92.90;;;;;;5004297;28;19909;-74
2022/08/13 05:36:42;;;;;;;;;;;21.90;92.60;;;;;;5014035;28;20378;-73
2022/08/13 05:39:08;;;;;;;;;;;22.00;92.00;;;;;;5000116;28;19963;-74
2022/08/13 05:41:34;;;;;;;;;;;21.90;92.00;;;;;;5014167;28;19910;-74
2022/08/13 05:44:00;;;;;;;;;;;22.00;92.30;;;;;;5013660;28;19909;-76
2022/08/13 05:46:25;;;;;;;;;;;22.10;92.30;;;;;;4993341;28;19913;-75
2022/08/13 05:48:57;;;;;;;;;;;22.10;92.20;;;;;;4991093;28;19909;-76
2022/08/13 05:51:28;;;;;;;;;;;22.10;92.70;;;;;;5012433;28;19917;-76
2022/08/13 05:53:55;;;;;;;;;;;22.10;91.90;;;;;;4985414;28;19913;-76
2022/08/13 05:56:24;;;;;;;;;;;22.40;89.80;;;;;;5004894;28;20000;-76
2022/08/13 05:58:50;;;;;;;;;;;22.20;91.50;;;;;;4998912;28;20428;-75
2022/08/13 06:04:02;;;;;;;;;;;22.60;87.60;;;;;;5002779;28;20012;-76
2022/08/13 06:06:32;;;;;;;;;;;22.70;87.20;;;;;;4999155;28;20330;-76
2022/08/13 06:08:59;;;;;;;;;;;22.70;85.00;;;;;;5004153;28;20012;-75
2022/08/13 06:11:25;;;;;;;;;;;22.70;87.20;;;;;;4997795;28;20014;-76
2022/08/13 06:13:51;;;;;;;;;;;23.00;83.30;;;;;;5009985;28;19909;-78
2022/08/13 06:16:21;;;;;;;;;;;23.40;81.30;;;;;;5006470;28;19954;-77
2022/08/13 06:18:48;;;;;;;;;;;23.60;80.90;;;;;;4999653;28;19953;-77
2022/08/13 06:21:14;;;;;;;;;;;23.50;80.20;;;;;;4998723;28;20384;-77
2022/08/13 06:23:42;;;;;;;;;;;23.30;82.20;;;;;;5008884;28;20280;-77
2022/08/13 06:26:11;;;;;;;;;;;22.70;85.80;;;;;;5009789;28;20424;-78
2022/08/13 06:28:38;;;;;;;;;;;23.10;84.80;;;;;;5000898;28;19961;-77
2022/08/13 06:31:05;;;;;;;;;;;23.20;85.20;;;;;;4993434;28;20020;-77
2022/08/13 06:33:31;;;;;;;;;;;23.60;81.40;;;;;;5007622;28;19968;-77
2022/08/13 06:35:58;;;;;;;;;;;23.90;80.30;;;;;;5001415;28;19912;-76
2022/08/13 06:38:29;;;;;;;;;;;24.00;79.30;;;;;;4995395;28;19910;-76
2022/08/13 06:40:55;;;;;;;;;;;24.00;80.40;;;;;;5002314;28;20079;-76
2022/08/13 06:43:21;;;;;;;;;;;24.40;78.70;;;;;;4992895;28;20282;-76
2022/08/13 06:45:47;;;;;;;;;;;24.10;79.50;;;;;;4991729;28;19913;-76
2022/08/13 06:48:14;;;;;;;;;;;24.40;78.70;;;;;;4999829;28;20332;-76
2022/08/13 06:50:40;;;;;;;;;;;24.40;78.00;;;;;;5001658;28;19914;-77
2022/08/13 06:53:06;;;;;;;;;;;24.60;77.40;;;;;;5006831;28;20013;-77
2022/08/13 06:55:36;;;;;;;;;;;24.80;78.00;;;;;;4998627;28;19949;-77
2022/08/13 06:58:07;;;;;;;;;;;24.80;77.90;;;;;;4995034;28;19913;-77
2022/08/13 07:00:33;;;;;;;;;;;24.60;76.60;;;;;;5004619;28;20033;-77
2022/08/13 07:03:00;;;;;;;;;;;24.80;77.10;;;;;;4993520;28;19922;-77
2022/08/13 07:05:36;;;;;;;;;;;25.00;75.60;;;;;;4998325;28;20000;-77
2022/08/13 07:08:04;;;;;;;;;;;24.80;75.80;;;;;;4994645;28;19916;-77
2022/08/13 07:10:31;;;;;;;;;;;24.80;75.20;;;;;;4999922;28;20259;-77
2022/08/13 07:12:57;;;;;;;;;;;24.40;74.50;;;;;;4995880;28;19918;-77
2022/08/13 07:15:23;;;;;;;;;;;24.30;74.00;;;;;;4998071;28;19909;-77
2022/08/13 07:17:50;;;;;;;;;;;24.40;74.10;;;;;;4994842;28;19920;-76
2022/08/13 07:20:16;;;;;;;;;;;24.70;74.10;;;;;;4997795;28;19913;-77
2022/08/13 07:22:42;;;;;;;;;;;24.80;73.70;;;;;;4997390;28;19916;-77
2022/08/13 07:25:09;;;;;;;;;;;24.90;74.30;;;;;;4994687;28;19913;-77
2022/08/13 07:27:38;;;;;;;;;;;24.80;72.40;;;;;;5000607;28;20401;-77
2022/08/13 07:30:04;;;;;;;;;;;24.90;72.40;;;;;;4998619;28;19922;-77
2022/08/13 07:32:29;;;;;;;;;;;25.00;72.50;;;;;;4998676;28;19940;-76
2022/08/13 07:34:59;;;;;;;;;;;25.40;74.50;;;;;;4995759;28;19914;-77
2022/08/13 07:37:24;;;;;;;;;;;25.60;72.00;;;;;;4987335;28;19920;-77
2022/08/13 07:39:50;;;;;;;;;;;25.80;71.40;;;;;;5005308;28;20004;-77
2022/08/13 07:42:16;;;;;;;;;;;26.20;69.90;;;;;;4996218;28;19971;-77
2022/08/13 07:44:42;;;;;;;;;;;26.10;70.90;;;;;;4999025;28;19956;-77
2022/08/13 07:47:12;;;;;;;;;;;26.40;70.60;;;;;;4995812;28;20001;-77
2022/08/13 07:49:40;;;;;;;;;;;26.60;70.30;;;;;;4995608;28;20440;-77
2022/08/13 07:52:07;;;;;;;;;;;26.50;68.20;;;;;;5005764;28;19925;-77
2022/08/13 07:54:34;;;;;;;;;;;26.70;68.30;;;;;;4996294;28;20005;-77
2022/08/13 07:57:00;;;;;;;;;;;26.70;68.20;;;;;;4996507;28;20266;-74
2022/08/13 07:59:26;;;;;;;;;;;26.70;67.40;;;;;;4995839;28;20004;-73
2022/08/13 08:01:53;;;;;;;;;;;26.70;67.30;;;;;;4996301;28;20012;-73
2022/08/13 08:04:19;;;;;;;;;;;26.80;66.90;;;;;;4995456;28;19920;-74
2022/08/13 08:06:46;;;;;;;;;;;27.10;66.60;;;;;;4992975;28;20573;-75
2022/08/13 08:09:16;;;;;;;;;;;27.30;66.60;;;;;;5001124;28;19910;-74
2022/08/13 08:14:27;;;;;;;;;;;27.30;66.10;;;;;;4996183;28;19941;-74
2022/08/13 08:16:53;;;;;;;;;;;27.60;67.00;;;;;;4996796;28;19940;-74
2022/08/13 08:19:20;;;;;;;;;;;27.70;65.70;;;;;;4995128;28;19910;-73
2022/08/13 08:21:46;;;;;;;;;;;28.00;65.50;;;;;;4996665;28;20374;-73
2022/08/13 08:24:13;;;;;;;;;;;28.00;65.70;;;;;;4997035;28;20381;-74
2022/08/13 08:26:40;;;;;;;;;;;28.10;64.90;;;;;;4998610;28;19910;-74
2022/08/13 08:29:33;;;;;;;7.22;2.20;;;28.10;63.90;;;;;;5116483;27;20109;-73
2022/08/13 08:32:00;;;;;;;2.58;1.35;;;28.10;65.80;;;;;;5104924;28;20433;-72
2022/08/13 08:34:27;;;;;;;5.50;2.00;;;28.10;63.80;;;;;;5108689;28;20135;-72
2022/08/13 08:36:55;;;;;;;4.53;1.98;;;28.20;64.40;;;;;;5107401;27;20035;-72
2022/08/13 08:44:54;;;;;;;9.05;1.90;;;28.40;64.70;;;;;;5117805;28;20027;-72
2022/08/13 08:47:21;;;;;;;6.40;1.50;;;28.50;63.90;;;;;;5119057;27;20071;-67
2022/08/13 08:49:46;;;;;;;17.55;2.50;;;28.40;63.90;;;;;;5117100;28;20031;-67
2022/08/13 08:52:13;;;;;;;21.42;2.65;;;28.80;64.60;;;;;;5116338;28;20414;-69
2022/08/13 08:54:40;;;;;;;12.80;2.03;;;28.70;63.60;;;;;;5109555;28;20016;-67
2022/08/13 08:57:06;;;;;;;2.70;1.73;;;28.90;64.00;;;;;;5119263;28;20476;-68
2022/08/13 08:59:41;;;;;;;3.60;1.77;;;28.80;63.90;;;;;;5120375;27;20020;-72
2022/08/13 09:02:18;;;;;;;3.33;1.85;;;28.90;64.00;;;;;;5116124;28;20128;-72
2022/08/13 09:04:53;;;;;;;5.45;2.13;;;29.10;63.60;;;;;;5107642;28;20047;-70
2022/08/13 09:07:21;;;;;;;9.02;1.73;;;29.20;63.90;;;;;;5106227;28;20028;-73
2022/08/13 09:09:50;;;;;;;8.52;1.80;;;29.50;63.10;;;;;;5097096;28;20081;-73
2022/08/13 09:12:16;;;;;;;5.40;1.88;;;29.60;62.80;;;;;;5097693;28;20028;-72
2022/08/13 09:14:43;;;;;;;8.20;4.50;;;29.50;62.30;;;;;;5098370;28;20154;-73
2022/08/13 09:17:09;;;;;;;5.03;1.33;;;29.50;63.10;;;;;;5096124;28;20080;-73
2022/08/13 09:19:35;;;;;;;9.88;1.48;;;29.30;62.10;;;;;;5100035;28;20030;-73
2022/08/13 09:22:01;;;;;;;7.40;1.35;;;29.50;62.30;;;;;;5095768;28;20103;-73
2022/08/13 09:24:28;;;;;;;5.22;1.40;;;29.90;61.70;;;;;;5095188;28;20062;-72
2022/08/13 09:26:56;;;;;;;23.42;2.67;;;30.10;61.80;;;;;;5095941;28;20016;-73
2022/08/13 09:29:23;;;;;;;8.02;1.50;;;30.40;61.80;;;;;;5099925;28;20043;-73
2022/08/13 09:31:50;;;;;;;20.20;3.10;;;30.40;60.60;;;;;;5096957;28;20504;-73
2022/08/13 09:34:19;;;;;;;4.80;1.33;;;30.30;60.90;;;;;;5098248;28;20043;-73
2022/08/13 09:36:45;;;;;;;4.80;1.35;;;30.60;60.30;;;;;;5101648;28;20097;-73
2022/08/13 09:39:49;;;;;;;9.75;1.52;;;30.90;59.80;;;;;;5104815;28;20464;-73
2022/08/13 09:42:46;;;;;;;7.40;1.50;;;31.10;59.30;;;;;;5065200;28;20074;-73
2022/08/13 09:45:12;;;;;;;1.95;1.40;;;30.90;59.50;;;;;;5074075;28;20051;-73
2022/08/13 09:47:39;;;;;;;47.95;4.85;;;31.10;58.50;;;;;;5095202;28;20419;-73
2022/08/13 09:50:10;;;;;;;17.80;1.83;;;31.10;58.40;;;;;;5095765;28;20539;-73
2022/08/13 09:52:37;;;;;;;7.10;1.10;;;31.30;58.10;;;;;;5095442;28;20317;-73
2022/08/13 09:55:04;;;;;;;8.38;1.50;;;31.20;57.80;;;;;;5095151;28;20032;-73
2022/08/13 09:57:30;;;;;;;4.22;1.13;;;31.50;57.70;;;;;;5094135;28;20024;-73
2022/08/13 09:59:56;;;;;;;5.55;1.10;;;31.60;57.80;;;;;;5095665;28;20019;-73
2022/08/13 10:02:22;;;;;;;1.55;1.00;;;31.70;57.70;;;;;;5095063;28;20028;-66
2022/08/13 10:04:52;;;;;;;6.57;1.40;;;31.10;57.20;;;;;;5095361;28;20111;-69
2022/08/13 10:07:19;;;;;;;5.78;1.00;;;31.30;57.70;;;;;;5095314;28;20071;-68
2022/08/13 10:09:45;;;;;;;2.42;0.95;;;31.70;56.40;;;;;;5094946;28;20016;-73
2022/08/13 10:12:13;;;;;;;1.58;0.90;;;31.60;56.10;;;;;;5094084;28;20024;-67
2022/08/13 10:14:40;;;;;;;4.18;1.60;;;31.60;55.20;;;;;;5091617;28;20037;-68
2022/08/13 10:17:07;;;;;;;4.25;1.05;;;31.30;55.90;;;;;;5079969;28;20060;-69
2022/08/13 10:19:34;;;;;;;7.13;1.20;;;31.50;55.50;;;;;;5084168;28;20028;-71
2022/08/13 10:21:59;;;;;;;2.85;1.27;;;31.80;55.70;;;;;;5079589;28;20024;-73
2022/08/13 10:24:25;;;;;;;9.73;3.15;;;32.00;56.20;;;;;;5083612;28;20031;-68
2022/08/13 10:26:51;;;;;;;2.10;0.93;;;32.10;55.30;;;;;;5087390;28;20009;-67
2022/08/13 10:29:17;;;;;;;13.52;1.00;;;32.30;53.80;;;;;;5081235;28;20473;-70
2022/08/13 10:31:42;;;;;;;6.80;1.30;;;32.60;54.40;;;;;;5082111;28;20024;-69
2022/08/13 10:34:08;;;;;;;5.93;1.08;;;32.60;54.00;;;;;;5079464;28;20025;-67
2022/08/13 10:36:35;;;;;;;5.18;1.10;;;32.80;54.20;;;;;;5084120;28;20543;-69
2022/08/13 10:39:03;;;;;;;1.92;1.10;;;33.20;54.30;;;;;;5087331;28;20494;-67
2022/08/13 10:41:28;;;;;;;1.40;1.00;;;33.50;53.80;;;;;;5082130;28;20348;-69
2022/08/13 10:43:59;;;;;;;1.77;1.13;;;33.10;53.50;;;;;;5073516;28;20107;-68
2022/08/13 10:46:28;;;;;;;1.90;1.10;;;32.90;53.60;;;;;;5076096;28;20054;-69
2022/08/13 10:48:55;;;;;;;11.27;1.35;;;32.60;54.00;;;;;;5091970;28;20138;-67
2022/08/13 10:51:23;;;;;;;8.43;1.10;;;32.90;53.90;;;;;;5092715;28;20031;-68
2022/08/13 10:54:00;;;;;;;5.00;1.30;;;33.30;53.00;;;;;;5094918;28;20032;-69
2022/08/13 10:56:31;;;;;;;3.05;1.17;;;33.50;54.50;;;;;;5087599;28;20434;-70
2022/08/13 10:58:59;;;;;;;;;;;33.50;53.80;;;;;;5084207;28;20460;-68
2022/08/13 11:01:26;;;;;;;6.53;1.15;;;33.60;53.40;;;;;;5083493;28;20471;-72
2022/08/13 11:03:55;;;;;;;3.30;1.30;;;34.00;53.90;;;;;;5096412;28;20149;-74
2022/08/13 11:06:25;;;;;;;5.95;1.33;;;34.30;53.70;;;;;;5087538;28;20044;-69
2022/08/13 11:08:54;;;;;;;6.87;1.37;;;34.50;53.10;;;;;;5087668;28;20040;-74
2022/08/13 11:11:21;;;;;;;37.20;2.63;;;34.60;53.60;;;;;;5088178;28;20044;-71
2022/08/13 11:13:47;;;;;;;3.85;1.08;;;34.30;53.70;;;;;;5083278;28;20028;-68
2022/08/13 11:19:01;;;;;;;6.63;1.33;;;34.60;53.00;;;;;;5087857;28;20484;-71
2022/08/13 11:21:27;;;;;;;4.63;1.15;;;34.30;53.10;;;;;;5090532;28;20025;-71
2022/08/13 11:23:53;;;;;;;7.85;1.58;;;34.40;52.80;;;;;;5081173;28;20020;-71
2022/08/13 11:26:22;;;;;;;6.63;1.23;;;34.80;53.30;;;;;;5074519;28;20408;-68
2022/08/13 11:28:48;;;;;;;3.30;1.08;;;35.20;54.40;;;;;;5077618;28;20131;-70
2022/08/13 11:31:14;;;;;;;9.43;1.30;;;35.40;53.30;;;;;;5075024;28;20143;-72
2022/08/13 11:33:39;;;;;;;6.95;1.13;;;35.70;52.60;;;;;;5088581;28;20487;-70
2022/08/13 11:36:05;;;;;;;2.22;1.13;;;35.30;52.10;;;;;;5092724;28;20020;-74
2022/08/13 11:38:31;;;;;;;4.07;1.50;;;35.20;51.50;;;;;;5092650;28;20015;-72
2022/08/13 11:40:58;;;;;;;5.90;1.10;;;34.90;52.30;;;;;;5092731;28;20026;-68
2022/08/13 11:43:29;;;;;;;2.80;1.20;;;35.00;51.80;;;;;;5094238;28;20035;-69
2022/08/13 11:45:56;;;;;;;5.63;1.08;;;34.50;51.90;;;;;;5089556;28;20103;-68
2022/08/13 11:48:23;;;;;;;2.67;1.10;;;34.30;51.80;;;;;;5092742;28;20078;-69
2022/08/13 11:50:50;;;;;;;10.00;0.90;;;34.70;53.20;;;;;;5087631;28;20021;-67
2022/08/13 11:53:17;;;;;;;4.15;1.30;;;34.30;51.70;;;;;;5084464;28;20024;-68
2022/08/13 11:55:42;;;;;;;4.15;1.40;;;34.30;52.70;;;;;;5084598;28;20285;-73
2022/08/13 11:58:08;;;;;;;10.88;1.40;;;35.00;52.60;;;;;;5086676;28;20467;-68
2022/08/13 12:00:36;;;;;;;14.32;1.42;;;35.50;52.40;;;;;;5089988;28;20062;-73
2022/08/13 12:03:02;;;;;;;4.75;1.38;;;35.20;51.60;;;;;;5084470;28;20040;-73
2022/08/13 12:05:28;;;;;;;19.75;1.98;;;35.90;52.20;;;;;;5080040;28;20046;-67
2022/08/13 12:07:54;;;;;;;6.68;1.00;;;35.90;52.00;;;;;;5086917;28;20461;-70
2022/08/13 12:10:21;;;;;;;3.38;1.00;;;36.10;51.60;;;;;;5090029;28;20086;-67
2022/08/13 12:12:47;;;;;;;8.65;1.40;;;36.50;51.10;;;;;;5086594;28;20039;-66
2022/08/13 12:15:14;;;;;;;4.00;1.00;;;36.60;51.70;;;;;;5088369;28;20023;-67
2022/08/13 12:17:44;;;;;;;9.93;1.60;;;36.70;50.50;;;;;;5088752;28;20032;-65
2022/08/13 12:20:12;;;;;;;6.60;1.20;;;36.70;50.90;;;;;;5100238;28;20043;-67
2022/08/13 12:22:40;;;;;;;16.40;1.80;;;36.30;50.40;;;;;;5089811;28;20270;-71
2022/08/13 12:25:08;;;;;;;4.22;0.98;;;36.60;50.70;;;;;;5086455;28;20091;-71
2022/08/13 12:27:34;;;;;;;31.38;2.67;;;36.60;50.10;;;;;;5089543;28;20629;-72
2022/08/13 12:30:01;;;;;;;13.27;1.48;;;36.70;51.30;;;;;;5086715;28;20028;-68
2022/08/13 12:32:27;;;;;;;15.73;1.67;;;36.70;51.00;;;;;;5089667;28;20020;-70
2022/08/13 12:34:52;;;;;;;4.72;1.20;;;37.50;51.20;;;;;;5088254;28;20047;-70
2022/08/13 12:37:18;;;;;;;14.98;2.13;;;37.10;51.20;;;;;;5087549;28;20385;-69
2022/08/13 12:39:44;;;;;;;1.35;1.00;;;38.00;51.00;;;;;;5091352;28;20090;-70
2022/08/13 12:42:09;;;;;;;4.03;0.95;;;37.10;49.60;;;;;;5092517;28;20032;-69
2022/08/13 12:44:35;;;;;;;2.70;0.88;;;37.10;49.90;;;;;;5092519;28;20032;-67
2022/08/13 12:47:01;;;;;;;111.10;6.18;;;37.50;49.60;;;;;;5092203;28;20026;-69
2022/08/13 12:49:28;;;;;;;236.57;12.10;;;38.00;49.60;;;;;;5091513;28;20476;-71
2022/08/13 12:51:53;;;;;;;186.27;8.00;;;38.20;50.10;;;;;;5102716;28;20027;-68
2022/08/13 12:54:19;;;;;;;22.27;1.80;;;38.00;50.50;;;;;;5094460;28;20032;-75
2022/08/13 12:56:45;;;;;;;45.90;3.50;;;38.00;49.70;;;;;;5091901;28;20101;-67
2022/08/13 12:59:11;;;;;;;54.83;2.58;;;38.00;49.30;;;;;;5089893;28;20067;-72
2022/08/13 13:01:37;;;;;;;134.00;6.03;;;38.20;49.20;;;;;;5084389;28;20476;-71
2022/08/13 13:04:03;;;;;;;8.88;1.17;;;38.70;49.50;;;;;;5082341;28;20544;-70
2022/08/13 13:06:30;;;;;;;20.52;1.73;;;39.20;48.80;;;;;;5092569;28;20110;-73
2022/08/13 13:08:55;;;;;;;4.82;1.00;;;40.00;49.50;;;;;;5073035;28;20041;-72
2022/08/13 13:11:22;;;;;;;3.60;1.15;;;40.10;49.40;;;;;;5078733;28;20032;-73
2022/08/13 13:13:49;;;;;;;14.07;1.30;;;40.30;48.90;;;;;;5086236;28;20408;-72
2022/08/13 13:16:16;;;;;;;9.05;1.00;;;40.20;49.50;;;;;;5093492;28;20112;-71
2022/08/13 13:18:42;;;;;;;7.15;1.10;;;40.90;49.10;;;;;;5097297;28;20503;-70
2022/08/13 13:21:09;;;;;;;4.28;1.00;;;41.50;49.60;;;;;;5094655;28;20088;-70
2022/08/13 13:23:39;;;;;;;4.55;1.00;;;41.80;48.40;;;;;;5094819;28;20032;-68
2022/08/13 13:26:05;;;;;;;3.50;0.95;;;41.80;48.30;;;;;;5094658;28;20118;-69
2022/08/13 13:28:31;;;;;;;13.30;1.70;;;41.50;48.60;;;;;;5080080;28;20072;-68
2022/08/13 13:30:58;;;;;;;3.75;1.10;;;41.20;48.10;;;;;;5079419;28;20051;-70
2022/08/13 13:33:24;;;;;;;1.52;0.82;;;40.80;47.30;;;;;;5100873;28;20029;-71
2022/08/13 13:35:51;;;;;;;1.25;0.80;;;41.00;47.70;;;;;;5102209;28;20028;-72
2022/08/13 13:38:20;;;;;;;3.55;0.80;;;41.40;48.10;;;;;;5096637;28;20036;-71
2022/08/13 13:40:48;;;;;;;3.65;1.02;;;41.50;48.00;;;;;;5089474;28;20044;-72
2022/08/13 13:43:17;;;;;;;2.92;0.90;;;42.00;47.80;;;;;;5090805;28;20077;-72
2022/08/13 13:45:43;;;;;;;5.50;1.08;;;43.20;47.50;;;;;;5094544;28;20081;-72
2022/08/13 13:48:31;;;;;;;7.65;1.23;;;43.70;47.20;;;;;;5095200;28;20028;-72
2022/08/13 13:50:59;;;;;;;6.28;0.98;;;44.10;48.00;;;;;;5096641;28;20016;-72
2022/08/13 13:53:26;;;;;;;3.22;1.08;;;43.40;47.40;;;;;;5094757;28;20031;-69
2022/08/13 13:55:53;;;;;;;6.18;1.08;;;43.50;47.30;;;;;;5090540;28;20030;-70
2022/08/13 13:58:21;;;;;;;23.30;2.78;;;43.80;46.60;;;;;;5085257;28;20044;-69
2022/08/13 14:00:51;;;;;;;14.43;1.42;;;43.20;46.90;;;;;;5090200;28;20379;-72